Time;durP1;ratioP1;P1;durP2;ratioP2;P2;SDS_P1;SDS_P2;PMS_P1;PMS_P2;Temp;Humidity;BMP_temperature;BMP_pressure;BME280_temperature;BME280_humidity;BME280_pressure;Samples;Min_cycle;Max_cycle;Signal;HPM_P1;HPM_P2
2023/12/22 00:00:17;;;;;;;9.53;1.30;;;;;;;-145.18;100.00;46685.78;5047441;28;20029;-91
2023/12/22 00:02:42;;;;;;;7.77;1.33;;;;;;;-145.18;100.00;46679.94;5053164;28;20036;-91
2023/12/22 00:05:08;;;;;;;5.53;1.50;;;;;;;-145.18;100.00;46691.66;5060203;28;20021;-90
2023/12/22 00:07:33;;;;;;;16.27;1.47;;;;;;;-145.18;100.00;46691.66;5040103;28;20051;-92
2023/12/22 00:09:59;;;;;;;14.23;1.53;;;;;;;-145.18;100.00;46685.78;5053514;28;20477;-89
2023/12/22 00:12:24;;;;;;;9.07;1.43;;;;;;;-145.18;100.00;46683.84;5040528;28;20028;-89
2023/12/22 00:14:52;;;;;;;15.80;1.93;;;;;;;-145.18;100.00;46691.66;5049329;28;20039;-90
2023/12/22 00:17:17;;;;;;;8.10;1.63;;;;;;;-145.18;100.00;46691.66;5036339;28;20036;-90
2023/12/22 00:19:43;;;;;;;16.40;1.80;;;;;;;-145.18;100.00;46687.75;5029058;28;20273;-89
2023/12/22 00:22:08;;;;;;;15.83;2.97;;;;;;;-145.18;100.00;46693.59;5047452;28;20429;-91
2023/12/22 00:24:34;;;;;;;14.53;2.77;;;;;;;-145.18;100.00;46677.97;5054374;28;20430;-90
2023/12/22 00:26:59;;;;;;;9.50;1.60;;;;;;;-145.18;100.00;46683.84;5047902;28;20462;-90
2023/12/22 00:29:25;;;;;;;21.23;2.43;;;;;;;-145.18;100.00;46691.66;5052682;28;20384;-89
2023/12/22 00:31:50;;;;;;;13.93;2.33;;;;;;;-145.18;100.00;46689.69;5052871;28;20025;-88
2023/12/22 00:34:15;;;;;;;16.53;2.40;;;;;;;-145.18;100.00;46679.94;5052642;28;20429;-90
2023/12/22 00:36:41;;;;;;;12.07;2.27;;;;;;;-145.18;100.00;46685.78;5044748;28;20048;-90
2023/12/22 00:39:07;;;;;;;24.30;2.53;;;;;;;-145.18;100.00;46679.94;5047718;28;20242;-90
2023/12/22 00:41:33;;;;;;;9.90;1.90;;;;;;;-145.18;100.00;46691.66;5064261;28;20398;-90
2023/12/22 00:43:58;;;;;;;15.60;2.87;;;;;;;-145.18;100.00;46691.66;5046623;28;20274;-89
2023/12/22 00:46:23;;;;;;;18.93;2.17;;;;;;;-145.18;100.00;46687.75;5042949;28;20372;-90
2023/12/22 00:48:49;;;;;;;15.73;1.90;;;;;;;-145.18;100.00;46693.59;5051814;28;20036;-89
2023/12/22 00:51:16;;;;;;;23.13;2.63;;;;;;;-145.18;100.00;46697.50;5052193;28;20380;-90
2023/12/22 00:53:41;;;;;;;19.97;2.23;;;;;;;-145.18;100.00;46705.31;5053399;28;20420;-90
2023/12/22 00:56:12;;;;;;;16.70;2.43;;;;;;;-145.18;100.00;46705.31;5052206;28;20266;-90
2023/12/22 00:58:38;;;;;;;19.10;2.83;;;;;;;-145.18;100.00;46705.31;5053897;28;20377;-90
2023/12/22 01:01:03;;;;;;;10.67;1.60;;;;;;;-145.18;100.00;46713.13;5052906;28;20340;-90
2023/12/22 01:03:31;;;;;;;14.77;2.80;;;;;;;-145.18;100.00;46715.09;5032318;28;20059;-90
2023/12/22 01:05:56;;;;;;;10.83;2.70;;;;;;;-145.18;100.00;46715.09;5051366;28;20025;-89
2023/12/22 01:08:22;;;;;;;16.60;2.90;;;;;;;-145.18;100.00;46719.00;5052009;28;20270;-91
2023/12/22 01:10:48;;;;;;;10.80;2.00;;;;;;;-145.18;100.00;46722.91;5044228;28;20390;-91
2023/12/22 01:13:13;;;;;;;11.47;2.63;;;;;;;-145.18;100.00;46726.81;5045480;28;20037;-91
2023/12/22 01:15:43;;;;;;;15.10;2.00;;;;;;;-145.18;100.00;46728.75;5053079;28;20040;-85
2023/12/22 01:18:09;;;;;;;16.37;1.93;;;;;;;-145.18;100.00;46736.56;5057339;28;20119;-94
2023/12/22 01:20:34;;;;;;;12.53;1.77;;;;;;;-145.18;100.00;46738.53;5059591;28;20290;-93
2023/12/22 01:23:00;;;;;;;9.27;1.83;;;;;;;-145.18;100.00;46736.56;5058401;28;20033;-92
2023/12/22 01:25:25;;;;;;;15.63;2.37;;;;;;;-145.18;100.00;46740.47;5054656;28;20033;-93
2023/12/22 01:27:52;;;;;;;14.77;2.10;;;;;;;-145.18;100.00;46732.66;5049517;28;20025;-93
2023/12/22 01:30:18;;;;;;;25.13;2.87;;;;;;;-145.18;100.00;46738.53;5036629;28;20065;-92
2023/12/22 01:32:44;;;;;;;19.27;1.73;;;;;;;-145.18;100.00;46722.91;5052325;28;20634;-91
2023/12/22 01:35:10;;;;;;;18.17;2.77;;;;;;;-145.18;100.00;46713.13;5056735;28;20270;-93
2023/12/22 01:37:36;;;;;;;13.00;2.33;;;;;;;-145.18;100.00;46666.25;5051464;28;20037;-90
2023/12/22 01:40:03;;;;;;;13.23;1.90;;;;;;;-145.18;100.00;46642.81;5046837;28;20029;-92
2023/12/22 01:42:29;;;;;;;13.30;2.40;;;;;;;-145.18;100.00;46660.41;5042777;28;20286;-91
2023/12/22 01:44:54;;;;;;;14.03;1.87;;;;;;;-145.18;100.00;46656.50;5048493;28;20305;-91
2023/12/22 01:47:22;;;;;;;11.03;2.00;;;;;;;-145.18;100.00;46652.59;5051993;28;20462;-91
2023/12/22 01:49:48;;;;;;;4.77;1.10;;;;;;;-145.18;100.00;46652.59;5050581;28;20068;-90
2023/12/22 01:52:15;;;;;;;14.67;1.87;;;;;;;-145.18;100.00;46640.88;5052046;28;20647;-90
2023/12/22 01:54:40;;;;;;;12.63;2.77;;;;;;;-145.18;100.00;46640.88;5050911;28;20017;-91
2023/12/22 01:57:06;;;;;;;16.87;2.20;;;;;;;-145.18;100.00;46640.88;5051775;28;20254;-90
2023/12/22 01:59:34;;;;;;;7.87;2.03;;;;;;;-145.18;100.00;46654.53;5035757;28;20095;-89
2023/12/22 02:02:02;;;;;;;14.40;2.53;;;;;;;-145.18;100.00;46636.94;5051609;28;20044;-89
2023/12/22 02:04:29;;;;;;;12.13;2.40;;;;;;;-145.18;100.00;46640.88;5051033;28;20285;-89
2023/12/22 02:06:54;;;;;;;17.60;2.90;;;;;;;-145.18;100.00;46650.63;5053609;28;20381;-89
2023/12/22 02:09:20;;;;;;;12.67;2.10;;;;;;;-145.18;100.00;46652.59;5053846;28;20807;-88
2023/12/22 02:11:45;;;;;;;11.17;3.33;;;;;;;-145.18;100.00;46658.44;5055649;28;20036;-87
2023/12/22 02:14:10;;;;;;;20.63;2.37;;;;;;;-145.18;100.00;46627.19;5054133;28;20059;-88
2023/12/22 02:16:46;;;;;;;15.87;2.83;;;;;;;-145.18;100.00;46635.00;5055066;28;20044;-88
2023/12/22 02:19:33;;;;;;;8.52;1.60;;;;;;;-145.18;100.00;46629.13;5052747;28;20025;-88
2023/12/22 02:22:03;;;;;;;15.77;2.27;;;;;;;-145.18;100.00;46660.41;5036636;28;20426;-88
2023/12/22 02:24:32;;;;;;;14.47;1.70;;;;;;;-145.18;100.00;46660.41;5054409;28;20385;-86
2023/12/22 02:27:28;;;;;;;14.23;1.80;;;;;;;-145.18;100.00;46654.53;5050997;28;21119;-87
2023/12/22 02:30:11;;;;;;;10.52;2.25;;;;;;;-145.18;100.00;46658.44;5044648;28;20312;-87
2023/12/22 02:32:40;;;;;;;18.43;3.20;;;;;;;-145.18;100.00;46660.41;5053842;28;20040;-87
2023/12/22 02:35:10;;;;;;;17.83;3.03;;;;;;;-145.18;100.00;46644.78;5041383;28;20758;-87
2023/12/22 02:37:38;;;;;;;13.73;2.73;;;;;;;-145.18;100.00;46693.59;5052869;28;20254;-88
2023/12/22 02:40:04;;;;;;;16.67;2.20;;;;;;;-145.18;100.00;46732.66;5055067;28;20763;-88
2023/12/22 02:42:32;;;;;;;17.93;1.97;;;;;;;-145.18;100.00;46740.47;5053653;28;20361;-87
2023/12/22 02:44:58;;;;;;;15.70;2.07;;;;;;;-145.18;100.00;46746.34;5055351;28;20371;-87
2023/12/22 02:47:24;;;;;;;15.20;2.33;;;;;;;-145.18;100.00;46746.34;5049649;28;20292;-87
2023/12/22 02:49:49;;;;;;;9.80;1.83;;;;;;;-145.18;100.00;46738.53;5052333;28;20258;-87
2023/12/22 02:52:15;;;;;;;10.27;2.07;;;;;;;-145.18;100.00;46744.38;5054630;28;20044;-87
2023/12/22 02:54:41;;;;;;;8.27;1.67;;;;;;;-145.18;100.00;46746.34;5054521;28;20424;-87
2023/12/22 02:57:09;;;;;;;12.03;2.00;;;;;;;-145.18;100.00;46744.38;5055317;28;20389;-87
2023/12/22 02:59:34;;;;;;;12.87;2.50;;;;;;;-145.18;100.00;46740.47;5040728;28;20048;-87
2023/12/22 03:02:00;;;;;;;10.70;2.20;;;;;;;-145.18;100.00;46740.47;5054855;28;20258;-87
2023/12/22 03:04:26;;;;;;;10.57;1.63;;;;;;;-145.18;100.00;46742.44;5041183;28;20056;-87
2023/12/22 03:06:51;;;;;;;9.60;1.80;;;;;;;-145.18;100.00;46738.53;5060170;28;20486;-87
2023/12/22 03:09:16;;;;;;;8.77;2.00;;;;;;;-145.18;100.00;46738.53;5042647;28;20029;-87
2023/12/22 03:11:45;;;;;;;8.20;1.90;;;;;;;-145.18;100.00;46742.44;5064573;28;20021;-87
2023/12/22 03:14:10;;;;;;;10.00;1.70;;;;;;;-145.18;100.00;46736.56;5041568;28;20030;-87
2023/12/22 03:16:36;;;;;;;9.50;2.07;;;;;;;-145.18;100.00;46740.47;5045764;28;20782;-87
2023/12/22 03:19:01;;;;;;;10.30;2.13;;;;;;;-145.18;100.00;46740.47;5039942;28;20032;-87
2023/12/22 03:21:27;;;;;;;10.43;1.73;;;;;;;-145.18;100.00;46742.44;5038025;28;20493;-87
2023/12/22 03:23:52;;;;;;;9.07;1.60;;;;;;;-145.18;100.00;46728.75;5051376;28;20489;-86
2023/12/22 03:26:17;;;;;;;11.93;1.87;;;;;;;-145.18;100.00;46728.75;5053970;28;20028;-87
2023/12/22 03:28:43;;;;;;;8.40;1.67;;;;;;;-145.18;100.00;46720.94;5054335;28;20033;-87
2023/12/22 03:31:08;;;;;;;16.53;2.00;;;;;;;-145.18;100.00;46697.50;5038889;28;20073;-87
2023/12/22 03:33:34;;;;;;;10.33;1.30;;;;;;;-145.18;100.00;46709.22;5041238;28;20017;-87
2023/12/22 03:35:59;;;;;;;12.70;2.03;;;;;;;-145.18;100.00;46705.31;5046440;28;20087;-88
2023/12/22 03:38:24;;;;;;;10.60;2.07;;;;;;;-145.18;100.00;46693.59;5037592;28;20033;-88
2023/12/22 03:40:50;;;;;;;10.80;2.23;;;;;;;-145.18;100.00;46679.94;5033456;28;20030;-87
2023/12/22 03:43:15;;;;;;;12.30;2.07;;;;;;;-145.18;100.00;46683.84;5052894;28;20511;-88
2023/12/22 03:45:41;;;;;;;11.87;1.57;;;;;;;-145.18;100.00;46701.41;5047754;28;20068;-89
2023/12/22 03:48:06;;;;;;;16.93;2.77;;;;;;;-145.18;100.00;46709.22;5064137;28;20057;-88
2023/12/22 03:50:32;;;;;;;17.37;3.47;;;;;;;-145.18;100.00;46670.16;5054869;28;20025;-87
2023/12/22 03:52:57;;;;;;;18.10;3.77;;;;;;;-145.18;100.00;46660.41;5053943;28;20369;-87
2023/12/22 03:55:22;;;;;;;16.03;2.37;;;;;;;-145.18;100.00;46654.53;5042274;28;20063;-87
2023/12/22 03:57:48;;;;;;;18.17;2.87;;;;;;;-145.18;100.00;46652.59;5052883;28;20032;-88
2023/12/22 04:00:16;;;;;;;11.37;2.30;;;;;;;-145.18;100.00;46654.53;5035695;28;20028;-87
2023/12/22 04:02:42;;;;;;;16.40;1.63;;;;;;;-145.18;100.00;46660.41;5045831;28;20544;-90
2023/12/22 04:05:07;;;;;;;11.60;1.77;;;;;;;-145.18;100.00;46660.41;5032105;28;20274;-88
2023/12/22 04:07:33;;;;;;;8.33;1.23;;;;;;;-145.18;100.00;46660.41;5038089;28;20179;-88
2023/12/22 04:09:59;;;;;;;10.67;1.87;;;;;;;-145.18;100.00;46660.41;5052905;28;20029;-88
2023/12/22 04:12:24;;;;;;;11.67;1.60;;;;;;;-145.18;100.00;46660.41;5040810;28;20029;-89
2023/12/22 04:14:49;;;;;;;9.97;2.10;;;;;;;-145.18;100.00;46660.41;5052656;28;20033;-89
2023/12/22 04:17:15;;;;;;;18.30;2.97;;;;;;;-145.18;100.00;46660.41;5052933;28;20156;-87
2023/12/22 04:19:40;;;;;;;9.93;2.30;;;;;;;-145.18;100.00;46652.59;5044481;28;20029;-88
2023/12/22 04:22:06;;;;;;;8.40;2.30;;;;;;;-145.18;100.00;46660.41;5052491;28;20029;-89
2023/12/22 04:24:31;;;;;;;8.93;1.83;;;;;;;-145.18;100.00;46654.53;5053578;28;20162;-88
2023/12/22 04:26:57;;;;;;;12.77;2.03;;;;;;;-145.18;100.00;46656.50;5053780;28;20393;-88
2023/12/22 04:29:22;;;;;;;9.67;1.63;;;;;;;-145.18;100.00;46652.59;5044921;28;20484;-89
2023/12/22 04:31:47;;;;;;;12.87;2.13;;;;;;;-145.18;100.00;46660.41;5053984;28;20492;-89
2023/12/22 04:34:15;;;;;;;7.83;1.50;;;;;;;-145.18;100.00;46660.41;5052741;28;20037;-88
2023/12/22 04:36:41;;;;;;;11.90;1.63;;;;;;;-145.18;100.00;46668.22;5044875;28;20033;-89
2023/12/22 04:39:07;;;;;;;16.77;2.80;;;;;;;-145.18;100.00;46687.75;5045666;28;20270;-88
2023/12/22 04:41:32;;;;;;;12.20;1.30;;;;;;;-145.18;100.00;46720.94;5051728;28;20040;-87
2023/12/22 04:43:58;;;;;;;9.53;1.83;;;;;;;-145.18;100.00;46734.63;5052080;28;20048;-89
2023/12/22 04:46:23;;;;;;;8.93;1.10;;;;;;;-145.18;100.00;46740.47;5053085;28;20166;-87
2023/12/22 04:48:48;;;;;;;16.23;1.97;;;;;;;-145.18;100.00;46740.47;5052574;28;20120;-87
2023/12/22 04:51:14;;;;;;;13.13;2.13;;;;;;;-145.18;100.00;46744.38;5051573;28;20037;-87
2023/12/22 04:53:39;;;;;;;21.23;3.07;;;;;;;-145.18;100.00;46740.47;5049613;28;20473;-87
2023/12/22 04:56:05;;;;;;;8.40;1.77;;;;;;;-145.18;100.00;46738.53;5050703;28;20679;-87
2023/12/22 04:58:31;;;;;;;11.83;1.80;;;;;;;-145.18;100.00;46736.56;5049263;28;20037;-88
2023/12/22 05:00:56;;;;;;;8.80;1.53;;;;;;;-145.18;100.00;46740.47;5051278;28;20025;-86
2023/12/22 05:03:22;;;;;;;14.37;1.73;;;;;;;-145.18;100.00;46738.53;5048100;28;20512;-87
2023/12/22 05:05:47;;;;;;;5.77;2.13;;;;;;;-145.18;100.00;46728.75;5045433;28;20120;-87
2023/12/22 05:08:13;;;;;;;7.90;1.47;;;;;;;-145.18;100.00;46728.75;5052829;28;20040;-87
2023/12/22 05:10:38;;;;;;;8.97;1.27;;;;;;;-145.18;100.00;46724.84;5048286;28;20052;-87
2023/12/22 05:13:04;;;;;;;16.37;2.60;;;;;;;-145.18;100.00;46724.84;5038920;28;20051;-87
2023/12/22 05:15:29;;;;;;;14.83;1.70;;;;;;;-145.18;100.00;46719.00;5049668;28;20021;-87
2023/12/22 05:17:54;;;;;;;16.83;1.60;;;;;;;-145.18;100.00;46717.03;5047703;28;20026;-87
2023/12/22 05:20:20;;;;;;;8.40;1.50;;;;;;;-145.18;100.00;46720.94;5042021;28;20037;-87
2023/12/22 05:22:45;;;;;;;9.57;1.77;;;;;;;-145.18;100.00;46719.00;5066991;28;20458;-87
2023/12/22 05:25:13;;;;;;;9.17;1.67;;;;;;;-145.18;100.00;46719.00;5047363;28;20096;-87
2023/12/22 05:27:39;;;;;;;8.10;1.43;;;;;;;-145.18;100.00;46717.03;5047717;28;20029;-88
2023/12/22 05:30:05;;;;;;;12.80;1.50;;;;;;;-145.18;100.00;46726.81;5050580;28;20376;-87
2023/12/22 05:32:31;;;;;;;11.13;2.07;;;;;;;-145.18;100.00;46717.03;5041339;28;20112;-87
2023/12/22 05:34:56;;;;;;;9.47;1.63;;;;;;;-145.18;100.00;46720.94;5047228;28;20281;-87
2023/12/22 05:37:21;;;;;;;8.83;1.60;;;;;;;-145.18;100.00;46720.94;5049218;28;20048;-85
2023/12/22 05:39:47;;;;;;;15.07;1.73;;;;;;;-145.18;100.00;46719.00;5044323;28;20191;-86
2023/12/22 05:42:12;;;;;;;14.40;2.50;;;;;;;-145.18;100.00;46719.00;5051775;28;20119;-86
2023/12/22 05:44:38;;;;;;;13.43;1.70;;;;;;;-145.18;100.00;46717.03;5054512;28;20035;-86
2023/12/22 05:47:04;;;;;;;14.97;1.97;;;;;;;-145.18;100.00;46719.00;5052476;28;20022;-87
2023/12/22 05:49:30;;;;;;;13.53;2.17;;;;;;;-145.18;100.00;46719.00;5054284;28;20329;-86
2023/12/22 05:51:56;;;;;;;18.97;3.73;;;;;;;-145.18;100.00;46715.09;5062674;28;20359;-85
2023/12/22 05:54:21;;;;;;;19.70;3.03;;;;;;;-145.18;100.00;46711.19;5067786;28;20416;-87
2023/12/22 05:56:48;;;;;;;18.77;2.80;;;;;;;-145.18;100.00;46711.19;5053604;28;20377;-86
2023/12/22 05:59:18;;;;;;;15.00;2.77;;;;;;;-145.18;100.00;46707.28;5040793;28;20048;-88
2023/12/22 06:01:44;;;;;;;28.30;4.33;;;;;;;-145.18;100.00;46707.28;5047130;28;21200;-88
2023/12/22 06:04:10;;;;;;;15.90;2.80;;;;;;;-145.18;100.00;46705.31;5046208;28;20390;-88
2023/12/22 06:06:38;;;;;;;18.53;3.27;;;;;;;-145.18;100.00;46703.38;5052270;28;20021;-88
2023/12/22 06:09:06;;;;;;;30.93;4.70;;;;;;;-145.18;100.00;46701.41;5046028;28;20033;-88
2023/12/22 06:11:31;;;;;;;21.80;4.30;;;;;;;-145.18;100.00;46701.41;5048254;28;20273;-87
2023/12/22 06:13:57;;;;;;;26.03;3.20;;;;;;;-145.18;100.00;46699.47;5054211;28;20254;-89
2023/12/22 06:16:22;;;;;;;13.13;2.93;;;;;;;-145.18;100.00;46703.38;5052317;28;20121;-90
2023/12/22 06:18:48;;;;;;;21.93;2.93;;;;;;;-145.18;100.00;46705.31;5053343;28;20448;-89
2023/12/22 06:21:15;;;;;;;17.60;3.13;;;;;;;-145.18;100.00;46707.28;5054976;28;20029;-88
2023/12/22 06:23:41;;;;;;;28.13;4.60;;;;;;;-145.18;100.00;46707.28;5054567;28;20071;-88
2023/12/22 06:26:11;;;;;;;20.27;4.23;;;;;;;-145.18;100.00;46707.28;5051147;28;20278;-90
2023/12/22 06:28:38;;;;;;;25.63;4.67;;;;;;;-145.18;100.00;46705.31;5050990;28;20037;-90
2023/12/22 06:31:06;;;;;;;15.17;3.30;;;;;;;-145.18;100.00;46707.28;5052189;28;21081;-91
2023/12/22 06:33:31;;;;;;;31.10;4.30;;;;;;;-145.18;100.00;46709.22;5048556;28;20261;-84
2023/12/22 06:35:57;;;;;;;25.30;3.33;;;;;;;-145.18;100.00;46705.31;5048845;28;20270;-88
2023/12/22 06:38:22;;;;;;;23.20;3.20;;;;;;;-145.18;100.00;46715.09;5046899;28;20107;-87
2023/12/22 06:40:48;;;;;;;24.57;2.87;;;;;;;-145.18;100.00;46713.13;5056114;28;20025;-87
2023/12/22 06:43:14;;;;;;;23.90;3.90;;;;;;;-145.18;100.00;46717.03;5051048;28;20033;-86
2023/12/22 06:45:40;;;;;;;33.97;5.00;;;;;;;-145.18;100.00;46707.28;5047651;28;20026;-84
2023/12/22 06:48:06;;;;;;;37.57;5.10;;;;;;;-145.18;100.00;46715.09;5047453;28;20634;-83
2023/12/22 06:50:32;;;;;;;25.60;4.47;;;;;;;-145.18;100.00;46719.00;5040005;28;20033;-85
2023/12/22 06:52:57;;;;;;;21.67;3.37;;;;;;;-145.18;100.00;46717.03;5048000;28;20270;-83
2023/12/22 06:55:23;;;;;;;22.70;3.30;;;;;;;-145.18;100.00;46715.09;5050361;28;20036;-85
2023/12/22 06:57:49;;;;;;;31.80;4.03;;;;;;;-145.18;100.00;46719.00;5048997;28;20045;-86
2023/12/22 07:00:15;;;;;;;30.17;4.17;;;;;;;-145.18;100.00;46720.94;5061229;28;20136;-86
2023/12/22 07:02:40;;;;;;;13.97;2.43;;;;;;;-145.18;100.00;46719.00;5046841;28;20059;-87
2023/12/22 07:05:09;;;;;;;28.83;5.03;;;;;;;-145.18;100.00;46719.00;5052360;28;20374;-88
2023/12/22 07:07:35;;;;;;;20.40;3.30;;;;;;;-145.18;100.00;46717.03;5051564;28;20105;-81
2023/12/22 07:10:01;;;;;;;24.67;3.10;;;;;;;-145.18;100.00;46719.00;5044387;28;20266;-80
2023/12/22 07:12:26;;;;;;;27.30;2.90;;;;;;;-145.18;100.00;46720.94;5050109;28;20286;-77
2023/12/22 07:14:51;;;;;;;16.63;2.83;;;;;;;-145.18;100.00;46719.00;5049162;28;20035;-80
2023/12/22 07:17:17;;;;;;;28.70;4.13;;;;;;;-145.18;100.00;46715.09;5051499;28;20405;-80
2023/12/22 07:19:42;;;;;;;22.20;3.57;;;;;;;-145.18;100.00;46719.00;5052720;28;20025;-80
2023/12/22 07:22:08;;;;;;;25.77;3.37;;;;;;;-145.18;100.00;46719.00;5054174;28;20049;-80
2023/12/22 07:24:34;;;;;;;17.17;3.63;;;;;;;-145.18;100.00;46719.00;5052050;28;20021;-80
2023/12/22 07:26:59;;;;;;;26.23;4.17;;;;;;;-145.18;100.00;46715.09;5050771;28;20041;-78
2023/12/22 07:29:24;;;;;;;18.27;3.50;;;;;;;-145.18;100.00;46719.00;5052361;28;20057;-78
2023/12/22 07:31:50;;;;;;;27.57;5.23;;;;;;;-145.18;100.00;46715.09;5026229;28;20087;-79
2023/12/22 07:34:16;;;;;;;28.30;4.53;;;;;;;-145.18;100.00;46719.00;5036734;28;20043;-78
2023/12/22 07:36:42;;;;;;;19.97;2.90;;;;;;;-145.18;100.00;46713.13;5041499;28;20061;-78
2023/12/22 07:39:09;;;;;;;26.53;3.20;;;;;;;-145.18;100.00;46715.09;5038308;28;20289;-78
2023/12/22 07:41:34;;;;;;;23.40;4.00;;;;;;;-145.18;100.00;46717.03;5052415;28;20036;-78
2023/12/22 07:44:01;;;;;;;28.13;3.53;;;;;;;-145.18;100.00;46717.03;5051976;28;20286;-81
2023/12/22 07:46:28;;;;;;;25.67;3.17;;;;;;;-145.18;100.00;46713.13;5050533;28;20072;-78
2023/12/22 07:48:53;;;;;;;17.53;2.83;;;;;;;-145.18;100.00;46707.28;5062939;28;20270;-78
2023/12/22 07:51:19;;;;;;;23.40;2.90;;;;;;;-145.18;100.00;46711.19;5034886;28;20294;-78
2023/12/22 07:53:44;;;;;;;18.40;3.27;;;;;;;-145.18;100.00;46711.19;5049866;28;20029;-79
2023/12/22 07:56:10;;;;;;;19.80;3.20;;;;;;;-145.18;100.00;46711.19;5053418;28;20120;-79
2023/12/22 07:58:36;;;;;;;20.70;4.07;;;;;;;-145.18;100.00;46705.31;5044233;28;20041;-80
2023/12/22 08:01:02;;;;;;;17.23;2.77;;;;;;;-145.18;100.00;46707.28;5044161;28;20042;-78
2023/12/22 08:03:28;;;;;;;17.07;2.80;;;;;;;-145.18;100.00;46709.22;5036070;28;20305;-78
2023/12/22 08:05:54;;;;;;;16.43;2.33;;;;;;;-145.18;100.00;46711.19;5038942;28;20262;-79
2023/12/22 08:08:19;;;;;;;25.17;2.97;;;;;;;-145.18;100.00;46711.19;5044817;28;20037;-80
2023/12/22 08:10:44;;;;;;;18.77;2.50;;;;;;;-145.18;100.00;46707.28;5045850;28;20479;-79
2023/12/22 08:13:10;;;;;;;23.27;3.27;;;;;;;-145.18;100.00;46703.38;5051268;28;20040;-79
2023/12/22 08:15:35;;;;;;;31.30;3.90;;;;;;;-145.18;100.00;46705.31;5050801;28;20033;-87
2023/12/22 08:18:00;;;;;;;13.93;2.73;;;;;;;-145.18;100.00;46701.41;5027712;28;20438;-83
2023/12/22 08:20:26;;;;;;;27.57;2.37;;;;;;;-145.18;100.00;46699.47;5035408;28;20037;-82
2023/12/22 08:22:51;;;;;;;18.97;3.70;;;;;;;-145.18;100.00;46701.41;5034025;28;20044;-84
2023/12/22 08:25:20;;;;;;;13.80;3.27;;;;;;;-145.18;100.00;46703.38;5047359;28;20116;-79
2023/12/22 08:27:46;;;;;;;14.97;3.00;;;;;;;-145.18;100.00;46701.41;5048686;28;20396;-78
2023/12/22 08:30:11;;;;;;;12.57;1.60;;;;;;;-145.18;100.00;46691.66;5051466;28;20373;-79
2023/12/22 08:32:37;;;;;;;12.80;2.17;;;;;;;-145.18;100.00;46695.56;5048456;28;20040;-79
2023/12/22 08:35:04;;;;;;;32.77;3.53;;;;;;;-145.18;100.00;46689.69;5060071;28;20048;-78
2023/12/22 08:37:30;;;;;;;11.40;1.77;;;;;;;-145.18;100.00;46679.94;5049799;28;20049;-79
2023/12/22 08:39:55;;;;;;;16.00;2.57;;;;;;;-145.18;100.00;46689.69;5049570;28;20280;-78
2023/12/22 08:42:22;;;;;;;9.80;1.73;;;;;;;-145.18;100.00;46670.16;5030754;28;20036;-79
2023/12/22 08:44:47;;;;;;;12.23;2.23;;;;;;;-145.18;100.00;46687.75;5049832;28;20055;-78
2023/12/22 08:47:13;;;;;;;12.60;2.20;;;;;;;-145.18;100.00;46674.06;5049909;28;20294;-79
2023/12/22 08:49:38;;;;;;;16.90;2.23;;;;;;;-145.18;100.00;46679.94;5032970;28;20037;-78
2023/12/22 08:52:04;;;;;;;10.83;1.50;;;;;;;-145.18;100.00;46674.06;5032795;28;20505;-78
2023/12/22 08:54:30;;;;;;;19.03;1.87;;;;;;;-145.18;100.00;46672.13;5048606;28;20032;-80
2023/12/22 08:56:55;;;;;;;16.67;2.67;;;;;;;-145.18;100.00;46672.13;5051584;28;20025;-80
2023/12/22 08:59:21;;;;;;;9.03;1.70;;;;;;;-145.18;100.00;46672.13;5048288;28;20625;-78
2023/12/22 09:01:46;;;;;;;11.93;2.07;;;;;;;-145.18;100.00;46668.22;5033050;28;20137;-79
2023/12/22 09:04:12;;;;;;;8.60;1.47;;;;;;;-145.18;100.00;46660.41;5046738;28;20061;-79
2023/12/22 09:06:37;;;;;;;12.60;1.53;;;;;;;-145.18;100.00;46664.31;5051187;28;20033;-79
2023/12/22 09:09:03;;;;;;;13.47;1.73;;;;;;;-145.18;100.00;46664.31;5024005;28;20079;-78
2023/12/22 09:11:29;;;;;;;12.43;1.77;;;;;;;-145.18;100.00;46658.44;5027271;28;20053;-78
2023/12/22 09:13:54;;;;;;;13.10;1.53;;;;;;;-145.18;100.00;46658.44;5050161;28;20402;-79
2023/12/22 09:16:26;;;;;;;8.20;1.70;;;;;;;-145.18;100.00;46654.53;5048080;28;20037;-79
2023/12/22 09:18:52;;;;;;;8.33;1.33;;;;;;;-145.18;100.00;46652.59;5045973;28;20430;-79
2023/12/22 09:21:19;;;;;;;9.87;1.10;;;;;;;-145.18;100.00;46658.44;5049531;28;20408;-80
2023/12/22 09:23:46;;;;;;;10.00;2.33;;;;;;;-145.18;100.00;46652.59;5057769;28;20029;-79
2023/12/22 09:26:15;;;;;;;6.87;1.30;;;;;;;-145.18;100.00;46652.59;5051113;28;20311;-79
2023/12/22 09:28:42;;;;;;;9.97;1.20;;;;;;;-145.18;100.00;46654.53;5048354;28;20665;-79
2023/12/22 09:31:08;;;;;;;4.80;1.40;;;;;;;-145.18;100.00;46652.59;5043683;28;20278;-78
2023/12/22 09:33:33;;;;;;;13.83;1.33;;;;;;;-145.18;100.00;46652.59;5048884;28;20308;-78
2023/12/22 09:35:59;;;;;;;5.27;1.00;;;;;;;-145.18;100.00;46658.44;5049811;28;20149;-77
2023/12/22 09:38:25;;;;;;;4.33;0.70;;;;;;;-145.18;100.00;46664.31;5039753;28;20521;-77
2023/12/22 09:40:50;;;;;;;6.03;1.40;;;;;;;-145.18;100.00;46668.22;5056821;28;20408;-76
2023/12/22 09:43:18;;;;;;;7.60;1.23;;;;;;;-145.18;100.00;46668.22;5046869;28;20045;-77
2023/12/22 09:45:45;;;;;;;9.17;1.00;;;;;;;-145.18;100.00;46670.16;5051024;28;20036;-77
2023/12/22 09:48:15;;;;;;;5.97;2.73;;;;;;;-145.18;100.00;46664.31;5043042;28;20348;-76
2023/12/22 09:50:42;;;;;;;2.60;1.20;;;;;;;-145.18;100.00;46668.22;5036800;28;20759;-76
2023/12/22 09:53:09;;;;;;;6.23;0.97;;;;;;;-145.18;100.00;46672.13;5045118;28;20791;-76
2023/12/22 09:55:35;;;;;;;6.60;1.03;;;;;;;-145.18;100.00;46677.97;5046503;28;20353;-76
2023/12/22 09:58:02;;;;;;;1.27;0.73;;;;;;;-145.18;100.00;46677.97;5046089;28;20453;-76
2023/12/22 10:00:31;;;;;;;5.27;1.13;;;;;;;-145.18;100.00;46679.94;5047259;28;20036;-77
2023/12/22 10:02:56;;;;;;;3.53;1.17;;;;;;;-145.18;100.00;46676.03;5046226;28;20045;-77
2023/12/22 10:05:22;;;;;;;7.73;1.10;;;;;;;-145.18;100.00;46683.84;5047937;28;20033;-76
2023/12/22 10:07:48;;;;;;;4.73;1.03;;;;;;;-145.18;100.00;46689.69;5047050;28;20041;-76
2023/12/22 10:10:14;;;;;;;5.53;1.00;;;;;;;-145.18;100.00;46679.94;5045563;28;20033;-77
2023/12/22 10:12:43;;;;;;;5.07;1.00;;;;;;;-145.18;100.00;46689.69;5057496;28;20064;-76
2023/12/22 10:15:10;;;;;;;3.63;1.10;;;;;;;-145.18;100.00;46677.97;5044424;28;20086;-78
2023/12/22 10:17:36;;;;;;;1.27;0.60;;;;;;;-145.18;100.00;46689.69;5044569;28;20036;-76
2023/12/22 10:20:03;;;;;;;4.73;1.23;;;;;;;-145.18;100.00;46691.66;5061081;28;20056;-77
2023/12/22 10:22:28;;;;;;;3.97;1.00;;;;;;;-145.18;100.00;46693.59;5030899;28;20033;-76
2023/12/22 10:24:54;;;;;;;9.90;1.30;;;;;;;-145.18;100.00;46689.69;5038058;28;20067;-76
2023/12/22 10:27:22;;;;;;;4.87;0.83;;;;;;;-145.18;100.00;46689.69;5041644;28;20049;-76
2023/12/22 10:29:55;;;;;;;3.30;1.10;;;;;;;-145.18;100.00;46691.66;5053531;28;20036;-75
2023/12/22 10:32:21;;;;;;;5.90;1.00;;;;;;;-145.18;100.00;46691.66;5041787;28;20040;-78
2023/12/22 10:34:47;;;;;;;5.73;1.13;;;;;;;-145.18;100.00;46693.59;5041361;28;20038;-75
2023/12/22 10:37:13;;;;;;;6.73;1.03;;;;;;;-145.18;100.00;46693.59;5046133;28;20091;-76
2023/12/22 10:39:39;;;;;;;6.37;1.00;;;;;;;-145.18;100.00;46693.59;5052474;28;20029;-76
2023/12/22 10:42:05;;;;;;;8.67;1.33;;;;;;;-145.18;100.00;46695.56;5049468;28;20071;-76
2023/12/22 10:44:30;;;;;;;6.90;1.37;;;;;;;-145.18;100.00;46695.56;5036044;28;20059;-77
2023/12/22 10:47:00;;;;;;;14.03;1.33;;;;;;;-145.18;100.00;46697.50;5044568;28;20036;-75
2023/12/22 10:49:25;;;;;;;2.80;0.93;;;;;;;-145.18;100.00;46699.47;5053329;28;20120;-76
2023/12/22 10:51:52;;;;;;;13.83;2.90;;;;;;;-145.18;100.00;46695.56;5044659;28;20438;-76
2023/12/22 10:54:18;;;;;;;5.27;1.13;;;;;;;-145.18;100.00;46699.47;5051356;28;20068;-76
2023/12/22 10:56:43;;;;;;;4.97;1.00;;;;;;;-145.18;100.00;46699.47;5049818;28;20037;-77
2023/12/22 10:59:09;;;;;;;7.97;1.10;;;;;;;-145.18;100.00;46699.47;5033679;28;20578;-78